Terminal Aerodrome Forecast
Issued by NWS

Home | Current Version | Previous Version | Text Only | Print | Product List | Glossary On
Versions: 1 2 3 4 5 6 7 8 9 10 11 12 13 14 15 16 17 18 19 20
000
FTUS44 KTSA 041100
TAFFYV
TAF
KFYV 041135Z 0412/0512 36008KT 4SM -RA BR OVC006
     FM041500 01008G14KT 4SM -FZRA BR OVC006
     FM041700 01010G16KT 4SM -PL OVC006
     FM042100 01009KT 1 1/2SM -SN OVC008
      TEMPO 0421/0501 3/4SM -SN OVC004
     FM050100 02008KT 5SM -SN BKN025 OVC050
     FM050600 04005KT P6SM BKN100=

USA.gov is the U.S. government's official web portal to all federal, state and local government web resources and services.